Liberty Island — HPUY — position and weather

sailwx.info

Track history (hours):
 
Tides and Currents Weather Stations Pressure Air Temp Water Temp Dewpoint Dewpoint Depression Visibility Wind Speed Wind Dir Waves Ship Positions

Liberty Island

Last reported at 2016-Aug-12 11:08 UTC. Time now 2016-Aug-26 11:58 UTC.
Position N 46°12' W 126°44'.
Warning: this ship's position is 14 days out of date.

Length 178 m; draft 9.3 m.

Type: Cargo ship. MMSI: 355886000.

Date/timePositionNaut miles runAvg speedWind from/ knotsBaromVisibWave heightAir tempDewpointWater temp
2016-Aug-12 11:08N 46°12' W 126°44'711.8
2016-Aug-12 10:33N 46°12' W 126°34'1212.0
2016-Aug-12 09:33N 46°12' W 126°17'1211.9
2016-Aug-12 08:33N 46°13' W 125°60'1212.1
2016-Aug-12 07:34N 46°13' W 125°42'1212.0
2016-Aug-12 06:34N 46°13' W 125°25'1212.0
2016-Aug-12 05:33N 46°13' W 125°07'1212.3
2016-Aug-12 04:33N 46°13' W 124°50'1312.5
2016-Aug-12 03:33N 46°13' W 124°32'1212.1
2016-Aug-12 02:33N 46°14' W 124°14'1010.3
2016-Aug-12 01:34N 46°14' W 123°59'9 8.5
2016-Aug-12 00:34N 46°13' W 123°47'1211.7
2016-Aug-11 23:34N 46°16' W 123°31'1110.8
2016-Aug-11 22:34N 46°09' W 123°20'1212.5
2016-Aug-11 21:34N 46°09' W 123°02'1211.7
2016-Aug-11 20:33N 45°60' W 122°51'1211.5
2016-Aug-11 19:34N 45°48' W 122°48'1010.2
2016-Aug-11 18:33N 45°38' W 122°44'0 0.0
2016-Aug-11 17:32N 45°38' W 122°44'0 0.0
2016-Aug-11 16:32N 45°38' W 122°44'0 0.0
2016-Aug-11 15:32N 45°38' W 122°44'0 0.0
2016-Aug-11 14:32N 45°38' W 122°44'0 0.0
2016-Aug-11 13:29N 45°38' W 122°44'0 0.0
2016-Aug-11 12:32N 45°38' W 122°44'0 0.0
2016-Aug-11 11:32N 45°38' W 122°44'0 0.0
2016-Aug-11 10:32N 45°38' W 122°44'0 0.0
2016-Aug-11 09:32N 45°38' W 122°44'0 0.0
2016-Aug-11 08:32N 45°38' W 122°44'0 0.0
2016-Aug-11 07:32N 45°38' W 122°44'0 0.1
2016-Aug-11 06:29N 45°38' W 122°44'0 0.0
2016-Aug-11 05:32N 45°38' W 122°44'0 0.0
2016-Aug-11 04:32N 45°38' W 122°44'0 0.0
2016-Aug-11 03:32N 45°38' W 122°44'0 0.0
2016-Aug-11 02:32N 45°38' W 122°44'1 0.5
2016-Aug-11 01:33N 45°39' W 122°45'7 6.9
2016-Aug-11 00:33N 45°46' W 122°46'1010.2
2016-Aug-10 23:33N 45°56' W 122°48'9 9.5
2016-Aug-10 22:33N 46°04' W 122°54'3 2.4
2016-Aug-10 21:31N 46°06' W 122°56'0 0.0
2016-Aug-10 20:28N 46°06' W 122°56'0 0.0
2016-Aug-10 19:31N 46°06' W 122°56'0 0.0
2016-Aug-10 18:31N 46°06' W 122°56'0 0.0
2016-Aug-10 17:28N 46°06' W 122°56'0 0.0
2016-Aug-10 16:28N 46°06' W 122°56'0 0.0
2016-Aug-10 15:31N 46°06' W 122°56'0 0.0
2016-Aug-10 14:31N 46°06' W 122°56'0 0.0
2016-Aug-10 13:31N 46°06' W 122°56'0 0.0
2016-Aug-10 12:31N 46°06' W 122°56'0 0.0
2016-Aug-10 11:31N 46°06' W 122°56'0 0.0
2016-Aug-10 10:31N 46°06' W 122°56'0 0.0
2016-Aug-10 09:31N 46°06' W 122°56'0 0.0
2016-Aug-10 08:31N 46°06' W 122°56'0 0.0
2016-Aug-10 07:28N 46°06' W 122°56'0 0.0
2016-Aug-10 06:31N 46°06' W 122°56'0 0.0
2016-Aug-10 05:31N 46°06' W 122°56'0 0.0
2016-Aug-10 04:31N 46°06' W 122°56'0 0.0
2016-Aug-10 03:31N 46°06' W 122°56'0 0.0
2016-Aug-10 02:28N 46°06' W 122°56'0 0.0
2016-Aug-10 01:28N 46°06' W 122°56'0 0.0
2016-Aug-10 00:31N 46°06' W 122°56'0 0.0
2016-Aug-09 23:28N 46°06' W 122°56'0 0.0
2016-Aug-09 22:31N 46°06' W 122°56'0 0.0
2016-Aug-09 21:28N 46°06' W 122°56'0 0.0
2016-Aug-09 20:25N 46°06' W 122°56'0 0.0
2016-Aug-09 19:31N 46°06' W 122°56'0 0.0
2016-Aug-09 18:31N 46°06' W 122°56'0 0.0
2016-Aug-09 17:31N 46°06' W 122°56'0 0.0
2016-Aug-09 16:31N 46°06' W 122°56'0 0.0
2016-Aug-09 15:31N 46°06' W 122°56'0 0.0
2016-Aug-09 14:31N 46°06' W 122°56'0 0.0
2016-Aug-09 13:31N 46°06' W 122°56'0 0.0
2016-Aug-09 12:31N 46°06' W 122°56'0 0.0
2016-Aug-09 11:31N 46°06' W 122°56'0 0.0
2016-Aug-09 10:31N 46°06' W 122°56'0 0.0
2016-Aug-09 09:31N 46°06' W 122°56'0 0.0
2016-Aug-09 08:31N 46°06' W 122°56'0 0.0
2016-Aug-09 07:31N 46°06' W 122°56'0 0.0
2016-Aug-09 04:31N 46°06' W 122°56'0 0.0
2016-Aug-09 03:31N 46°06' W 122°56'0 0.0
2016-Aug-09 02:28N 46°06' W 122°56'0 0.0
2016-Aug-09 01:31N 46°06' W 122°56'0 0.0
2016-Aug-09 00:31N 46°06' W 122°56'0 0.0
2016-Aug-08 23:31N 46°06' W 122°56'0 0.0
2016-Aug-08 22:31N 46°06' W 122°56'0 0.0
2016-Aug-08 21:31N 46°06' W 122°56'0 0.0
2016-Aug-08 20:31N 46°06' W 122°56'0 0.0
2016-Aug-08 19:31N 46°06' W 122°56'0 0.0
2016-Aug-08 18:25N 46°06' W 122°56'0 0.0
2016-Aug-08 17:31N 46°06' W 122°56'0 0.0
2016-Aug-08 16:28N 46°06' W 122°56'0 0.0
2016-Aug-08 15:31N 46°06' W 122°56'0 0.0
2016-Aug-08 14:31N 46°06' W 122°56'0 0.0
2016-Aug-08 13:31N 46°06' W 122°56'0 0.0
2016-Aug-08 12:28N 46°06' W 122°56'0 0.0
2016-Aug-08 11:31N 46°06' W 122°56'0 0.0
2016-Aug-08 10:31N 46°06' W 122°56'0 0.0
2016-Aug-08 09:31N 46°06' W 122°56'0 0.0
2016-Aug-08 08:31N 46°06' W 122°56'0 0.0
2016-Aug-08 07:22N 46°06' W 122°56'0 0.0
2016-Aug-08 06:31N 46°06' W 122°56'0 0.0
2016-Aug-08 05:28N 46°06' W 122°56'0 0.0
2016-Aug-08 04:31N 46°06' W 122°56'0 0.0
2016-Aug-08 03:28N 46°06' W 122°56'0 0.0
2016-Aug-08 02:31N 46°06' W 122°56'0 0.0
2016-Aug-08 01:31N 46°06' W 122°56'0 0.0
2016-Aug-08 00:28N 46°06' W 122°56'0 0.0
2016-Aug-07 23:31N 46°06' W 122°56'0 0.0
2016-Aug-07 22:28N 46°06' W 122°56'0 0.0
2016-Aug-07 21:28N 46°06' W 122°56'0 0.0
2016-Aug-07 20:31N 46°06' W 122°56'0 0.0
2016-Aug-07 19:31N 46°06' W 122°56'0 0.0
2016-Aug-07 18:31N 46°06' W 122°56'0 0.0
2016-Aug-07 17:31N 46°06' W 122°56'0 0.0
2016-Aug-07 16:31N 46°06' W 122°56'0 0.0
2016-Aug-07 15:31N 46°06' W 122°56'0 0.0
2016-Aug-07 14:31N 46°06' W 122°56'0 0.0
2016-Aug-07 13:31N 46°06' W 122°56'0 0.0
2016-Aug-07 12:31N 46°06' W 122°56'0 0.0
2016-Aug-07 11:31N 46°06' W 122°56'0 0.0
2016-Aug-07 10:31N 46°06' W 122°56'0 0.0
2016-Aug-07 09:31N 46°06' W 122°56'0 0.0
2016-Aug-07 08:31N 46°06' W 122°56'0 0.0
2016-Aug-07 07:25N 46°06' W 122°56'0 0.0
2016-Aug-07 06:28N 46°06' W 122°56'0 0.0
2016-Aug-07 04:31N 46°06' W 122°56'0 0.0
2016-Aug-07 03:31N 46°06' W 122°56'0 0.0
2016-Aug-07 02:31N 46°06' W 122°56'0 0.0
2016-Aug-07 01:31N 46°06' W 122°56'0 0.0
2016-Aug-07 00:28N 46°06' W 122°56'0 0.0
2016-Aug-06 23:33N 46°06' W 122°56'0 0.0
2016-Aug-06 22:28N 46°06' W 122°56'0 0.0
2016-Aug-06 21:31N 46°06' W 122°56'0 0.0
2016-Aug-06 20:31N 46°06' W 122°56'0 0.0
2016-Aug-06 19:31N 46°06' W 122°56'0 0.0
2016-Aug-06 18:28N 46°06' W 122°56'0 0.0
2016-Aug-06 17:31N 46°06' W 122°56'0 0.0
2016-Aug-06 16:31N 46°06' W 122°56'0 0.0
2016-Aug-06 15:28N 46°06' W 122°56'0 0.0
2016-Aug-06 14:31N 46°06' W 122°56'0 0.0
2016-Aug-06 13:31N 46°06' W 122°56'0 0.0
2016-Aug-06 12:31N 46°06' W 122°56'0 0.0
2016-Aug-06 11:31N 46°06' W 122°56'0 0.0
2016-Aug-06 10:31N 46°06' W 122°56'0 0.0
2016-Aug-06 09:31N 46°06' W 122°56'0 0.0
2016-Aug-06 08:25N 46°06' W 122°56'0 0.0
2016-Aug-06 07:28N 46°06' W 122°56'0 0.0
2016-Aug-06 04:31N 46°06' W 122°56'0 0.0
2016-Aug-06 03:28N 46°06' W 122°56'0 0.0
2016-Aug-06 02:31N 46°06' W 122°56'0 0.0
2016-Aug-06 01:28N 46°06' W 122°56'0 0.0
2016-Aug-05 22:31N 46°06' W 122°56'0 0.0
2016-Aug-05 20:28N 46°06' W 122°56'0 0.0
2016-Aug-05 19:31N 46°06' W 122°56'0 0.0
2016-Aug-05 18:31N 46°06' W 122°56'0 0.0
2016-Aug-05 17:31N 46°06' W 122°56'0 0.0
2016-Aug-05 16:31N 46°06' W 122°56'0 0.0
2016-Aug-05 15:28N 46°06' W 122°56'0 0.0
2016-Aug-05 14:28N 46°06' W 122°56'0 0.0
2016-Aug-05 13:31N 46°06' W 122°56'0 0.0
2016-Aug-05 12:31N 46°06' W 122°56'0 0.0
2016-Aug-05 11:31N 46°06' W 122°56'0 0.0
2016-Aug-05 10:28N 46°06' W 122°56'0 0.0
2016-Aug-05 09:31N 46°06' W 122°56'0 0.0
2016-Aug-05 08:28N 46°06' W 122°56'0 0.0
2016-Aug-05 07:25N 46°06' W 122°56'0 0.0
2016-Aug-05 06:28N 46°06' W 122°56'0 0.0
2016-Aug-05 04:28N 46°06' W 122°56'0 0.0
2016-Aug-05 03:31N 46°06' W 122°56'0 0.0
2016-Aug-05 02:28N 46°06' W 122°56'0 0.0
2016-Aug-05 01:31N 46°06' W 122°56'0 0.0
2016-Aug-05 00:28N 46°06' W 122°56'0 0.0
2016-Aug-04 23:31N 46°06' W 122°56'0 0.0
2016-Aug-04 22:31N 46°06' W 122°56'0 0.0
2016-Aug-04 21:31N 46°06' W 122°56'0 0.0
2016-Aug-04 20:31N 46°06' W 122°56'0 0.0
2016-Aug-04 19:31N 46°06' W 122°56'0 0.0
2016-Aug-04 18:31N 46°06' W 122°56'0 0.0
2016-Aug-04 17:31N 46°06' W 122°56'0 0.0
2016-Aug-04 16:31N 46°06' W 122°56'0 0.0
2016-Aug-04 15:28N 46°06' W 122°56'0 0.0
2016-Aug-04 14:31N 46°06' W 122°56'0 0.0
2016-Aug-04 13:28N 46°06' W 122°56'0 0.0
2016-Aug-04 12:31N 46°06' W 122°56'0 0.0
2016-Aug-04 11:28N 46°06' W 122°56'0 0.0
2016-Aug-04 10:31N 46°06' W 122°56'0 0.0
2016-Aug-04 09:31N 46°06' W 122°56'0 0.0
2016-Aug-04 08:28N 46°06' W 122°56'0 0.0
2016-Aug-04 07:31N 46°06' W 122°56'0 0.0
2016-Aug-04 06:31N 46°06' W 122°56'0 0.0
2016-Aug-04 04:31N 46°06' W 122°56'0 0.0
2016-Aug-04 03:31N 46°06' W 122°56'0 0.0
2016-Aug-04 02:31N 46°06' W 122°56'0 0.0
2016-Aug-04 01:31N 46°06' W 122°56'0 0.0
2016-Aug-04 00:31N 46°06' W 122°56'0 0.0
2016-Aug-03 23:31N 46°06' W 122°56'0 0.0
2016-Aug-03 22:31N 46°06' W 122°56'0 0.0
2016-Aug-03 21:28N 46°06' W 122°56'0 0.0
2016-Aug-03 20:31N 46°06' W 122°56'0 0.0
2016-Aug-03 19:31N 46°06' W 122°56'0 0.0
2016-Aug-03 18:31N 46°06' W 122°56'0 0.0
2016-Aug-03 17:28N 46°06' W 122°56'0 0.0
2016-Aug-03 16:25N 46°06' W 122°56'0 0.0
2016-Aug-03 15:31N 46°06' W 122°56'0 0.0
2016-Aug-03 14:31N 46°06' W 122°56'0 0.0
2016-Aug-03 13:31N 46°06' W 122°56'0 0.0
2016-Aug-03 12:31N 46°06' W 122°56'0 0.0
2016-Aug-03 11:28N 46°06' W 122°56'0 0.0
2016-Aug-03 10:31N 46°06' W 122°56'0 0.0
2016-Aug-03 09:31N 46°06' W 122°56'0 0.0
2016-Aug-03 08:31N 46°06' W 122°56'0 0.0
2016-Aug-03 07:31N 46°06' W 122°56'0 0.0
2016-Aug-03 06:31N 46°06' W 122°56'0 0.0
2016-Aug-03 04:31N 46°06' W 122°56'0 0.0
2016-Aug-03 03:31N 46°06' W 122°56'0 0.0
2016-Aug-03 02:31N 46°06' W 122°56'0 0.0
2016-Aug-03 01:31N 46°06' W 122°56'0 0.0
2016-Aug-03 00:31N 46°06' W 122°56'0 0.0
2016-Aug-02 23:31N 46°06' W 122°56'0 0.0
2016-Aug-02 22:31N 46°06' W 122°56'0 0.0
2016-Aug-02 21:28N 46°06' W 122°56'0 0.0
2016-Aug-02 20:28N 46°06' W 122°56'0 0.0
2016-Aug-02 19:31N 46°06' W 122°56'0 0.0
2016-Aug-02 18:31N 46°06' W 122°56'0 0.0
2016-Aug-02 17:28N 46°06' W 122°56'0 0.0
2016-Aug-02 16:31N 46°06' W 122°56'0 0.0
2016-Aug-02 15:31N 46°06' W 122°56'0 0.0
2016-Aug-02 14:28N 46°06' W 122°56'0 0.0
2016-Aug-02 13:28N 46°06' W 122°56'0 0.0
2016-Aug-02 12:31N 46°06' W 122°56'0 0.0
2016-Aug-02 11:31N 46°06' W 122°56'  
Track history (hours):
 
Tides and Currents Weather Stations Pressure Air Temp Water Temp Dewpoint Dewpoint Depression Visibility Wind Speed Wind Dir Waves Ship Positions

Liberty Island

Last reported at 2016-Aug-12 11:08 UTC. Time now 2016-Aug-26 11:58 UTC.
Position N 46°12' W 126°44'.
Warning: this ship's position is 14 days out of date.

Length 178 m; draft 9.3 m.

Type: Cargo ship. MMSI: 355886000.

Date/timePositionNaut miles runAvg speedWind from/ knotsBaromVisibWave heightAir tempDewpointWater temp
2016-Aug-12 11:08N 46°12' W 126°44'711.8
2016-Aug-12 10:33N 46°12' W 126°34'1212.0
2016-Aug-12 09:33N 46°12' W 126°17'1211.9
2016-Aug-12 08:33N 46°13' W 125°60'1212.1
2016-Aug-12 07:34N 46°13' W 125°42'1212.0
2016-Aug-12 06:34N 46°13' W 125°25'1212.0
2016-Aug-12 05:33N 46°13' W 125°07'1212.3
2016-Aug-12 04:33N 46°13' W 124°50'1312.5
2016-Aug-12 03:33N 46°13' W 124°32'1212.1
2016-Aug-12 02:33N 46°14' W 124°14'1010.3
2016-Aug-12 01:34N 46°14' W 123°59'9 8.5
2016-Aug-12 00:34N 46°13' W 123°47'1211.7
2016-Aug-11 23:34N 46°16' W 123°31'1110.8
2016-Aug-11 22:34N 46°09' W 123°20'1212.5
2016-Aug-11 21:34N 46°09' W 123°02'1211.7
2016-Aug-11 20:33N 45°60' W 122°51'1211.5
2016-Aug-11 19:34N 45°48' W 122°48'1010.2
2016-Aug-11 18:33N 45°38' W 122°44'0 0.0
2016-Aug-11 17:32N 45°38' W 122°44'0 0.0
2016-Aug-11 16:32N 45°38' W 122°44'0 0.0
2016-Aug-11 15:32N 45°38' W 122°44'0 0.0
2016-Aug-11 14:32N 45°38' W 122°44'0 0.0
2016-Aug-11 13:29N 45°38' W 122°44'0 0.0
2016-Aug-11 12:32N 45°38' W 122°44'0 0.0
2016-Aug-11 11:32N 45°38' W 122°44'0 0.0
2016-Aug-11 10:32N 45°38' W 122°44'0 0.0
2016-Aug-11 09:32N 45°38' W 122°44'0 0.0
2016-Aug-11 08:32N 45°38' W 122°44'0 0.0
2016-Aug-11 07:32N 45°38' W 122°44'0 0.1
2016-Aug-11 06:29N 45°38' W 122°44'0 0.0
2016-Aug-11 05:32N 45°38' W 122°44'0 0.0
2016-Aug-11 04:32N 45°38' W 122°44'0 0.0
2016-Aug-11 03:32N 45°38' W 122°44'0 0.0
2016-Aug-11 02:32N 45°38' W 122°44'1 0.5
2016-Aug-11 01:33N 45°39' W 122°45'7 6.9
2016-Aug-11 00:33N 45°46' W 122°46'1010.2
2016-Aug-10 23:33N 45°56' W 122°48'9 9.5
2016-Aug-10 22:33N 46°04' W 122°54'3 2.4
2016-Aug-10 21:31N 46°06' W 122°56'0 0.0
2016-Aug-10 20:28N 46°06' W 122°56'0 0.0
2016-Aug-10 19:31N 46°06' W 122°56'0 0.0
2016-Aug-10 18:31N 46°06' W 122°56'0 0.0
2016-Aug-10 17:28N 46°06' W 122°56'0 0.0
2016-Aug-10 16:28N 46°06' W 122°56'0 0.0
2016-Aug-10 15:31N 46°06' W 122°56'0 0.0
2016-Aug-10 14:31N 46°06' W 122°56'0 0.0
2016-Aug-10 13:31N 46°06' W 122°56'0 0.0
2016-Aug-10 12:31N 46°06' W 122°56'0 0.0
2016-Aug-10 11:31N 46°06' W 122°56'0 0.0
2016-Aug-10 10:31N 46°06' W 122°56'0 0.0
2016-Aug-10 09:31N 46°06' W 122°56'0 0.0
2016-Aug-10 08:31N 46°06' W 122°56'0 0.0
2016-Aug-10 07:28N 46°06' W 122°56'0 0.0
2016-Aug-10 06:31N 46°06' W 122°56'0 0.0
2016-Aug-10 05:31N 46°06' W 122°56'0 0.0
2016-Aug-10 04:31N 46°06' W 122°56'0 0.0
2016-Aug-10 03:31N 46°06' W 122°56'0 0.0
2016-Aug-10 02:28N 46°06' W 122°56'0 0.0
2016-Aug-10 01:28N 46°06' W 122°56'0 0.0
2016-Aug-10 00:31N 46°06' W 122°56'0 0.0
2016-Aug-09 23:28N 46°06' W 122°56'0 0.0
2016-Aug-09 22:31N 46°06' W 122°56'0 0.0
2016-Aug-09 21:28N 46°06' W 122°56'0 0.0
2016-Aug-09 20:25N 46°06' W 122°56'0 0.0
2016-Aug-09 19:31N 46°06' W 122°56'0 0.0
2016-Aug-09 18:31N 46°06' W 122°56'0 0.0
2016-Aug-09 17:31N 46°06' W 122°56'0 0.0
2016-Aug-09 16:31N 46°06' W 122°56'0 0.0
2016-Aug-09 15:31N 46°06' W 122°56'0 0.0
2016-Aug-09 14:31N 46°06' W 122°56'0 0.0
2016-Aug-09 13:31N 46°06' W 122°56'0 0.0
2016-Aug-09 12:31N 46°06' W 122°56'0 0.0
2016-Aug-09 11:31N 46°06' W 122°56'0 0.0
2016-Aug-09 10:31N 46°06' W 122°56'0 0.0
2016-Aug-09 09:31N 46°06' W 122°56'0 0.0
2016-Aug-09 08:31N 46°06' W 122°56'0 0.0
2016-Aug-09 07:31N 46°06' W 122°56'0 0.0
2016-Aug-09 04:31N 46°06' W 122°56'0 0.0
2016-Aug-09 03:31N 46°06' W 122°56'0 0.0
2016-Aug-09 02:28N 46°06' W 122°56'0 0.0
2016-Aug-09 01:31N 46°06' W 122°56'0 0.0
2016-Aug-09 00:31N 46°06' W 122°56'0 0.0
2016-Aug-08 23:31N 46°06' W 122°56'0 0.0
2016-Aug-08 22:31N 46°06' W 122°56'0 0.0
2016-Aug-08 21:31N 46°06' W 122°56'0 0.0
2016-Aug-08 20:31N 46°06' W 122°56'0 0.0
2016-Aug-08 19:31N 46°06' W 122°56'0 0.0
2016-Aug-08 18:25N 46°06' W 122°56'0 0.0
2016-Aug-08 17:31N 46°06' W 122°56'0 0.0
2016-Aug-08 16:28N 46°06' W 122°56'0 0.0
2016-Aug-08 15:31N 46°06' W 122°56'0 0.0
2016-Aug-08 14:31N 46°06' W 122°56'0 0.0
2016-Aug-08 13:31N 46°06' W 122°56'0 0.0
2016-Aug-08 12:28N 46°06' W 122°56'0 0.0
2016-Aug-08 11:31N 46°06' W 122°56'0 0.0
2016-Aug-08 10:31N 46°06' W 122°56'0 0.0
2016-Aug-08 09:31N 46°06' W 122°56'0 0.0
2016-Aug-08 08:31N 46°06' W 122°56'0 0.0
2016-Aug-08 07:22N 46°06' W 122°56'0 0.0
2016-Aug-08 06:31N 46°06' W 122°56'0 0.0
2016-Aug-08 05:28N 46°06' W 122°56'0 0.0
2016-Aug-08 04:31N 46°06' W 122°56'0 0.0
2016-Aug-08 03:28N 46°06' W 122°56'0 0.0
2016-Aug-08 02:31N 46°06' W 122°56'0 0.0
2016-Aug-08 01:31N 46°06' W 122°56'0 0.0
2016-Aug-08 00:28N 46°06' W 122°56'0 0.0
2016-Aug-07 23:31N 46°06' W 122°56'0 0.0
2016-Aug-07 22:28N 46°06' W 122°56'0 0.0
2016-Aug-07 21:28N 46°06' W 122°56'0 0.0
2016-Aug-07 20:31N 46°06' W 122°56'0 0.0
2016-Aug-07 19:31N 46°06' W 122°56'0 0.0
2016-Aug-07 18:31N 46°06' W 122°56'0 0.0
2016-Aug-07 17:31N 46°06' W 122°56'0 0.0
2016-Aug-07 16:31N 46°06' W 122°56'0 0.0
2016-Aug-07 15:31N 46°06' W 122°56'0 0.0
2016-Aug-07 14:31N 46°06' W 122°56'0 0.0
2016-Aug-07 13:31N 46°06' W 122°56'0 0.0
2016-Aug-07 12:31N 46°06' W 122°56'0 0.0
2016-Aug-07 11:31N 46°06' W 122°56'0 0.0
2016-Aug-07 10:31N 46°06' W 122°56'0 0.0
2016-Aug-07 09:31N 46°06' W 122°56'0 0.0
2016-Aug-07 08:31N 46°06' W 122°56'0 0.0
2016-Aug-07 07:25N 46°06' W 122°56'0 0.0
2016-Aug-07 06:28N 46°06' W 122°56'0 0.0
2016-Aug-07 04:31N 46°06' W 122°56'0 0.0
2016-Aug-07 03:31N 46°06' W 122°56'0 0.0
2016-Aug-07 02:31N 46°06' W 122°56'0 0.0
2016-Aug-07 01:31N 46°06' W 122°56'0 0.0
2016-Aug-07 00:28N 46°06' W 122°56'0 0.0
2016-Aug-06 23:33N 46°06' W 122°56'0 0.0
2016-Aug-06 22:28N 46°06' W 122°56'0 0.0
2016-Aug-06 21:31N 46°06' W 122°56'0 0.0
2016-Aug-06 20:31N 46°06' W 122°56'0 0.0
2016-Aug-06 19:31N 46°06' W 122°56'0 0.0
2016-Aug-06 18:28N 46°06' W 122°56'0 0.0
2016-Aug-06 17:31N 46°06' W 122°56'0 0.0
2016-Aug-06 16:31N 46°06' W 122°56'0 0.0
2016-Aug-06 15:28N 46°06' W 122°56'0 0.0
2016-Aug-06 14:31N 46°06' W 122°56'0 0.0
2016-Aug-06 13:31N 46°06' W 122°56'0 0.0
2016-Aug-06 12:31N 46°06' W 122°56'0 0.0
2016-Aug-06 11:31N 46°06' W 122°56'0 0.0
2016-Aug-06 10:31N 46°06' W 122°56'0 0.0
2016-Aug-06 09:31N 46°06' W 122°56'0 0.0
2016-Aug-06 08:25N 46°06' W 122°56'0 0.0
2016-Aug-06 07:28N 46°06' W 122°56'0 0.0
2016-Aug-06 04:31N 46°06' W 122°56'0 0.0
2016-Aug-06 03:28N 46°06' W 122°56'0 0.0
2016-Aug-06 02:31N 46°06' W 122°56'0 0.0
2016-Aug-06 01:28N 46°06' W 122°56'0 0.0
2016-Aug-05 22:31N 46°06' W 122°56'0 0.0
2016-Aug-05 20:28N 46°06' W 122°56'0 0.0
2016-Aug-05 19:31N 46°06' W 122°56'0 0.0
2016-Aug-05 18:31N 46°06' W 122°56'0 0.0
2016-Aug-05 17:31N 46°06' W 122°56'0 0.0
2016-Aug-05 16:31N 46°06' W 122°56'0 0.0
2016-Aug-05 15:28N 46°06' W 122°56'0 0.0
2016-Aug-05 14:28N 46°06' W 122°56'0 0.0
2016-Aug-05 13:31N 46°06' W 122°56'0 0.0
2016-Aug-05 12:31N 46°06' W 122°56'0 0.0
2016-Aug-05 11:31N 46°06' W 122°56'0 0.0
2016-Aug-05 10:28N 46°06' W 122°56'0 0.0
2016-Aug-05 09:31N 46°06' W 122°56'0 0.0
2016-Aug-05 08:28N 46°06' W 122°56'0 0.0
2016-Aug-05 07:25N 46°06' W 122°56'0 0.0
2016-Aug-05 06:28N 46°06' W 122°56'0 0.0
2016-Aug-05 04:28N 46°06' W 122°56'0 0.0
2016-Aug-05 03:31N 46°06' W 122°56'0 0.0
2016-Aug-05 02:28N 46°06' W 122°56'0 0.0
2016-Aug-05 01:31N 46°06' W 122°56'0 0.0
2016-Aug-05 00:28N 46°06' W 122°56'0 0.0
2016-Aug-04 23:31N 46°06' W 122°56'0 0.0
2016-Aug-04 22:31N 46°06' W 122°56'0 0.0
2016-Aug-04 21:31N 46°06' W 122°56'0 0.0
2016-Aug-04 20:31N 46°06' W 122°56'0 0.0
2016-Aug-04 19:31N 46°06' W 122°56'0 0.0
2016-Aug-04 18:31N 46°06' W 122°56'0 0.0
2016-Aug-04 17:31N 46°06' W 122°56'0 0.0
2016-Aug-04 16:31N 46°06' W 122°56'0 0.0
2016-Aug-04 15:28N 46°06' W 122°56'0 0.0
2016-Aug-04 14:31N 46°06' W 122°56'0 0.0
2016-Aug-04 13:28N 46°06' W 122°56'0 0.0
2016-Aug-04 12:31N 46°06' W 122°56'0 0.0
2016-Aug-04 11:28N 46°06' W 122°56'0 0.0
2016-Aug-04 10:31N 46°06' W 122°56'0 0.0
2016-Aug-04 09:31N 46°06' W 122°56'0 0.0
2016-Aug-04 08:28N 46°06' W 122°56'0 0.0
2016-Aug-04 07:31N 46°06' W 122°56'0 0.0
2016-Aug-04 06:31N 46°06' W 122°56'0 0.0
2016-Aug-04 04:31N 46°06' W 122°56'0 0.0
2016-Aug-04 03:31N 46°06' W 122°56'0 0.0
2016-Aug-04 02:31N 46°06' W 122°56'0 0.0
2016-Aug-04 01:31N 46°06' W 122°56'0 0.0
2016-Aug-04 00:31N 46°06' W 122°56'0 0.0
2016-Aug-03 23:31N 46°06' W 122°56'0 0.0
2016-Aug-03 22:31N 46°06' W 122°56'0 0.0
2016-Aug-03 21:28N 46°06' W 122°56'0 0.0
2016-Aug-03 20:31N 46°06' W 122°56'0 0.0
2016-Aug-03 19:31N 46°06' W 122°56'0 0.0
2016-Aug-03 18:31N 46°06' W 122°56'0 0.0
2016-Aug-03 17:28N 46°06' W 122°56'0 0.0
2016-Aug-03 16:25N 46°06' W 122°56'0 0.0
2016-Aug-03 15:31N 46°06' W 122°56'0 0.0
2016-Aug-03 14:31N 46°06' W 122°56'0 0.0
2016-Aug-03 13:31N 46°06' W 122°56'0 0.0
2016-Aug-03 12:31N 46°06' W 122°56'0 0.0
2016-Aug-03 11:28N 46°06' W 122°56'0 0.0
2016-Aug-03 10:31N 46°06' W 122°56'0 0.0
2016-Aug-03 09:31N 46°06' W 122°56'0 0.0
2016-Aug-03 08:31N 46°06' W 122°56'0 0.0
2016-Aug-03 07:31N 46°06' W 122°56'0 0.0
2016-Aug-03 06:31N 46°06' W 122°56'0 0.0
2016-Aug-03 04:31N 46°06' W 122°56'0 0.0
2016-Aug-03 03:31N 46°06' W 122°56'0 0.0
2016-Aug-03 02:31N 46°06' W 122°56'0 0.0
2016-Aug-03 01:31N 46°06' W 122°56'0 0.0
2016-Aug-03 00:31N 46°06' W 122°56'0 0.0
2016-Aug-02 23:31N 46°06' W 122°56'0 0.0
2016-Aug-02 22:31N 46°06' W 122°56'0 0.0
2016-Aug-02 21:28N 46°06' W 122°56'0 0.0
2016-Aug-02 20:28N 46°06' W 122°56'0 0.0
2016-Aug-02 19:31N 46°06' W 122°56'0 0.0
2016-Aug-02 18:31N 46°06' W 122°56'0 0.0
2016-Aug-02 17:28N 46°06' W 122°56'0 0.0
2016-Aug-02 16:31N 46°06' W 122°56'0 0.0
2016-Aug-02 15:31N 46°06' W 122°56'0 0.0
2016-Aug-02 14:28N 46°06' W 122°56'0 0.0
2016-Aug-02 13:28N 46°06' W 122°56'0 0.0
2016-Aug-02 12:31N 46°06' W 122°56'0 0.0
2016-Aug-02 11:31N 46°06' W 122°56'  

Dump ship's entire track history